Time;durP1;ratioP1;P1;durP2;ratioP2;P2;SDS_P1;SDS_P2;PMS_P1;PMS_P2;Temp;Humidity;BMP_temperature;BMP_pressure;BME280_temperature;BME280_humidity;BME280_pressure;Samples;Min_cycle;Max_cycle;Signal;HPM_P1;HPM_P2
2021/09/17 00:01:40;;;;;;;7.07;5.30;;;;;;;23.48;57.08;99368.03;4493544;31;35085;-83
2021/09/17 00:04:08;;;;;;;10.00;5.37;;;;;;;23.55;56.75;99361.03;4479007;31;33895;-83
2021/09/17 00:06:36;;;;;;;16.70;7.32;;;;;;;23.92;55.86;99358.00;4491197;31;34395;-84
2021/09/17 00:09:03;;;;;;;8.95;6.50;;;;;;;23.83;56.37;99358.13;4494682;31;33214;-83
2021/09/17 00:11:31;;;;;;;12.77;6.18;;;;;;;23.88;56.29;99350.41;4494513;31;34688;-83
2021/09/17 00:14:00;;;;;;;11.32;5.78;;;;;;;23.91;56.29;99353.63;4478229;31;33127;-83
2021/09/17 00:16:28;;;;;;;9.63;5.20;;;;;;;23.85;56.23;99350.75;4476385;32;33846;-82
2021/09/17 00:18:56;;;;;;;11.95;6.45;;;;;;;23.88;55.76;99350.41;4490584;31;34610;-82
2021/09/17 00:21:23;;;;;;;9.30;5.30;;;;;;;23.77;56.54;99349.69;4492707;31;33812;-82
2021/09/17 00:23:51;;;;;;;10.48;5.90;;;;;;;23.97;56.75;99339.47;4491959;31;34352;-82
2021/09/17 00:26:19;;;;;;;9.48;5.65;;;;;;;23.95;56.48;99340.66;4491760;31;32810;-82
2021/09/17 00:28:47;;;;;;;8.80;6.12;;;;;;;23.84;56.62;99344.50;4478326;31;32431;-82
2021/09/17 00:31:15;;;;;;;11.30;4.80;;;;;;;23.69;56.77;99341.59;4480505;31;34248;-82
2021/09/17 00:33:43;;;;;;;10.05;6.12;;;;;;;23.74;56.61;99333.84;4491444;31;33779;-82
2021/09/17 00:36:10;;;;;;;17.23;5.70;;;;;;;23.60;57.29;99336.28;4492837;31;33802;-82
2021/09/17 00:38:38;;;;;;;10.60;5.35;;;;;;;23.39;57.56;99325.91;4491228;31;34434;-82
2021/09/17 00:41:06;;;;;;;12.52;5.50;;;;;;;23.51;57.04;99330.00;4492984;31;34792;-82
2021/09/17 00:43:33;;;;;;;8.98;4.85;;;;;;;23.58;56.87;99333.72;4480649;31;33497;-82
2021/09/17 00:46:01;;;;;;;9.23;5.43;;;;;;;23.88;55.71;99326.12;4493139;31;33447;-82
2021/09/17 00:48:28;;;;;;;7.72;4.95;;;;;;;24.15;55.55;99322.31;4491206;31;33897;-82
2021/09/17 00:50:56;;;;;;;11.77;5.68;;;;;;;24.08;56.12;99315.91;4493221;31;34062;-82
2021/09/17 00:53:24;;;;;;;8.50;5.05;;;;;;;23.87;56.72;99316.34;4492381;31;33916;-82
2021/09/17 00:55:52;;;;;;;6.25;4.32;;;;;;;23.75;57.15;99315.81;4469944;31;33591;-82
2021/09/17 00:58:20;;;;;;;12.70;5.68;;;;;;;23.60;57.60;99310.19;4491797;31;34558;-82
2021/09/17 01:00:47;;;;;;;12.20;5.97;;;;;;;23.88;56.72;99312.66;4491198;31;34135;-82
2021/09/17 01:03:15;;;;;;;10.85;5.20;;;;;;;23.83;56.98;99309.59;4478666;31;33455;-82
2021/09/17 01:05:43;;;;;;;9.68;5.65;;;;;;;23.99;56.70;99304.28;4491479;31;33163;-82
2021/09/17 01:08:10;;;;;;;14.80;5.40;;;;;;;23.90;55.93;99299.87;4491271;31;32786;-82
2021/09/17 01:10:39;;;;;;;12.10;5.00;;;;;;;23.92;56.09;99300.53;4479861;31;34539;-82
2021/09/17 01:13:07;;;;;;;16.33;5.68;;;;;;;23.97;56.29;99290.94;4490991;31;34503;-82
2021/09/17 01:15:36;;;;;;;9.80;5.00;;;;;;;23.79;56.85;99294.78;4490671;31;33427;-82
2021/09/17 01:18:04;;;;;;;9.70;5.45;;;;;;;23.75;56.60;99295.09;4471734;31;34858;-82
2021/09/17 01:20:32;;;;;;;9.40;4.82;;;;;;;23.54;57.18;99283.03;4493072;31;33420;-82
2021/09/17 01:22:59;;;;;;;8.77;4.68;;;;;;;23.53;57.23;99282.19;4491760;31;33399;-82
2021/09/17 01:25:27;;;;;;;7.62;4.62;;;;;;;23.55;57.05;99280.19;4478571;31;33587;-82
2021/09/17 01:27:55;;;;;;;8.10;5.15;;;;;;;23.64;56.64;99283.75;4493922;31;33663;-82
2021/09/17 01:30:23;;;;;;;10.82;4.78;;;;;;;23.49;57.29;99281.66;4494177;31;32435;-81
2021/09/17 01:32:52;;;;;;;10.38;5.47;;;;;;;23.61;56.90;99287.59;4479476;31;33899;-81
2021/09/17 01:35:22;;;;;;;13.65;4.75;;;;;;;23.92;56.63;99273.56;4492194;31;34073;-82
2021/09/17 01:37:50;;;;;;;9.05;4.25;;;;;;;23.96;56.76;99272.22;4478022;31;34543;-82
2021/09/17 01:40:18;;;;;;;8.23;4.97;;;;;;;23.95;56.79;99267.84;4478201;31;35507;-82
2021/09/17 01:42:46;;;;;;;6.65;4.45;;;;;;;23.63;57.53;99269.41;4491800;31;34702;-82
2021/09/17 01:45:14;;;;;;;14.55;5.05;;;;;;;23.61;57.41;99257.97;4478907;31;32497;-83
2021/09/17 01:47:42;;;;;;;7.35;5.12;;;;;;;23.72;56.76;99256.84;4479465;31;32821;-82
2021/09/17 01:50:10;;;;;;;8.50;5.25;;;;;;;23.43;57.47;99251.81;4491346;31;34074;-82
2021/09/17 01:52:38;;;;;;;11.80;5.30;;;;;;;23.57;57.05;99245.81;4479474;31;36283;-83
2021/09/17 01:55:06;;;;;;;6.12;4.40;;;;;;;23.64;57.15;99246.03;4490433;31;33400;-83
2021/09/17 01:57:34;;;;;;;11.50;5.20;;;;;;;23.30;57.96;99237.97;4479656;31;34671;-83
2021/09/17 02:00:05;;;;;;;9.60;4.60;;;;;;;23.23;57.96;99238.63;4478262;31;33527;-83
2021/09/17 02:02:34;;;;;;;10.23;5.10;;;;;;;22.98;58.59;99228.75;4478574;31;33766;-83
2021/09/17 02:05:04;;;;;;;14.82;5.30;;;;;;;23.23;57.92;99217.06;4491321;31;33042;-83
2021/09/17 02:07:31;;;;;;;10.85;5.87;;;;;;;23.13;58.28;99227.12;4478314;31;34198;-84
2021/09/17 02:09:59;;;;;;;8.93;6.30;;;;;;;23.03;58.48;99220.19;4491041;31;33992;-84
2021/09/17 02:12:27;;;;;;;10.48;5.72;;;;;;;22.98;58.60;99216.13;4491669;31;33925;-84
2021/09/17 02:14:55;;;;;;;9.63;4.65;;;;;;;23.16;58.22;99216.00;4476770;31;33702;-84
2021/09/17 02:17:23;;;;;;;9.13;4.82;;;;;;;23.18;58.09;99205.94;4491100;31;34288;-84
2021/09/17 02:19:51;;;;;;;7.53;5.10;;;;;;;22.85;59.07;99204.06;4469307;31;33546;-84
2021/09/17 02:22:19;;;;;;;10.85;4.75;;;;;;;22.65;59.44;99208.84;4490593;31;33509;-84
2021/09/17 02:24:47;;;;;;;11.98;5.80;;;;;;;22.79;58.85;99200.16;4475592;31;32684;-83
2021/09/17 02:27:14;;;;;;;12.32;5.95;;;;;;;22.93;58.64;99198.75;4491285;31;34324;-84
2021/09/17 02:29:42;;;;;;;9.60;5.40;;;;;;;22.87;58.86;99199.34;4490962;31;34757;-83
2021/09/17 02:32:11;;;;;;;7.37;5.22;;;;;;;22.57;59.81;99189.94;4476416;31;32693;-84
2021/09/17 02:34:40;;;;;;;9.15;5.18;;;;;;;22.82;59.02;99185.53;4490284;31;33693;-84
2021/09/17 02:37:08;;;;;;;8.05;5.05;;;;;;;22.56;59.78;99191.78;4477132;31;32877;-83
2021/09/17 02:39:35;;;;;;;9.80;5.68;;;;;;;22.49;60.02;99177.25;4490971;31;34051;-84
2021/09/17 02:42:04;;;;;;;7.22;4.53;;;;;;;22.38;60.55;99178.37;4477645;31;32823;-84
2021/09/17 02:44:32;;;;;;;9.23;5.78;;;;;;;22.37;60.68;99175.84;4477379;31;33091;-84
2021/09/17 02:47:01;;;;;;;16.23;5.87;;;;;;;22.32;60.96;99176.31;4492606;31;33464;-84
2021/09/17 02:49:33;;;;;;;12.73;5.53;;;;;;;22.38;60.67;99172.16;4490704;31;33751;-84
2021/09/17 02:52:00;;;;;;;9.82;5.28;;;;;;;22.19;60.88;99187.47;4476693;31;34546;-84
2021/09/17 02:54:29;;;;;;;9.88;6.07;;;;;;;22.20;60.81;99181.09;4481503;31;32997;-84
2021/09/17 02:56:57;;;;;;;12.18;5.25;;;;;;;22.21;60.80;99188.16;4488807;31;33664;-84
2021/09/17 02:59:25;;;;;;;8.77;5.18;;;;;;;22.46;59.90;99177.59;4478585;31;34843;-84
2021/09/17 03:01:54;;;;;;;10.35;5.22;;;;;;;22.81;59.05;99178.47;4479759;31;33932;-84
2021/09/17 03:04:22;;;;;;;9.98;5.70;;;;;;;22.94;58.95;99173.53;4494102;31;32757;-83
2021/09/17 03:06:50;;;;;;;10.35;4.93;;;;;;;22.78;59.60;99179.63;4495151;31;33908;-84
2021/09/17 03:09:18;;;;;;;9.60;5.32;;;;;;;22.69;59.86;99181.44;4483750;31;34450;-83
2021/09/17 03:11:45;;;;;;;12.40;6.18;;;;;;;22.72;59.78;99189.19;4481980;31;33780;-84
2021/09/17 03:14:13;;;;;;;8.40;5.12;;;;;;;22.52;60.91;99179.66;4481463;31;33426;-85
2021/09/17 03:16:41;;;;;;;14.77;5.78;;;;;;;22.24;62.95;99176.25;4491647;31;33698;-85
2021/09/17 03:19:08;;;;;;;8.43;5.32;;;;;;;22.31;63.33;99173.78;4491172;31;34845;-85
2021/09/17 03:21:36;;;;;;;9.25;5.20;;;;;;;22.26;63.47;99179.63;4479307;31;33513;-84
2021/09/17 03:24:04;;;;;;;11.40;6.50;;;;;;;22.30;63.73;99180.16;4493870;31;34154;-84
2021/09/17 03:26:31;;;;;;;12.00;6.10;;;;;;;22.29;64.15;99178.47;4466990;31;32851;-85
2021/09/17 03:28:59;;;;;;;12.35;5.90;;;;;;;22.67;63.35;99167.28;4491759;31;34217;-84
2021/09/17 03:31:27;;;;;;;8.98;5.47;;;;;;;22.36;65.01;99166.94;4479386;31;32753;-85
2021/09/17 03:33:55;;;;;;;13.43;5.90;;;;;;;22.27;65.43;99167.88;4492444;31;33127;-85
2021/09/17 03:36:23;;;;;;;14.43;6.10;;;;;;;22.20;65.96;99158.75;4495467;31;33912;-84
2021/09/17 03:38:50;;;;;;;11.88;6.15;;;;;;;22.20;66.31;99158.75;4478830;31;34815;-84
2021/09/17 03:41:18;;;;;;;15.32;5.95;;;;;;;22.17;66.47;99159.91;4478946;31;32874;-84
2021/09/17 03:43:46;;;;;;;13.80;7.25;;;;;;;22.18;66.55;99161.59;4491116;31;33416;-82
2021/09/17 03:46:13;;;;;;;16.55;6.43;;;;;;;22.40;65.80;99149.47;4493156;31;33525;-82
2021/09/17 03:48:41;;;;;;;10.20;5.75;;;;;;;22.44;65.63;99144.62;4480526;31;34890;-82
2021/09/17 03:51:09;;;;;;;9.95;5.90;;;;;;;22.21;66.87;99142.44;4494213;31;34571;-82
2021/09/17 03:53:37;;;;;;;14.38;7.40;;;;;;;22.16;67.14;99147.44;4494113;31;33430;-83
2021/09/17 03:56:04;;;;;;;10.95;5.75;;;;;;;22.26;66.87;99149.19;4492880;31;33844;-82
2021/09/17 03:58:32;;;;;;;15.45;6.72;;;;;;;22.01;68.38;99146.31;4473605;31;33716;-82
2021/09/17 04:00:59;;;;;;;19.80;7.10;;;;;;;21.95;68.63;99149.63;4491029;31;33833;-82
2021/09/17 04:03:28;;;;;;;14.15;7.37;;;;;;;22.04;68.37;99147.84;4479515;31;35242;-82
2021/09/17 04:05:55;;;;;;;8.40;6.25;;;;;;;22.22;67.37;99143.31;4485852;31;33161;-82
2021/09/17 04:08:23;;;;;;;9.57;5.43;;;;;;;22.19;67.50;99147.16;4489537;31;34079;-82
2021/09/17 04:10:50;;;;;;;10.40;6.70;;;;;;;22.22;67.35;99136.09;4492700;31;33687;-82
2021/09/17 04:13:18;;;;;;;11.18;5.85;;;;;;;22.26;67.12;99141.13;4463594;31;32547;-82
2021/09/17 04:15:45;;;;;;;12.27;6.30;;;;;;;22.33;66.76;99152.97;4489401;31;33771;-82
2021/09/17 04:18:15;;;;;;;11.45;6.65;;;;;;;22.16;67.36;99149.28;4478195;31;33199;-83
2021/09/17 04:20:42;;;;;;;13.75;7.80;;;;;;;22.07;67.95;99152.88;4476563;31;33133;-83
2021/09/17 04:23:10;;;;;;;12.95;6.57;;;;;;;21.58;69.35;99161.38;4478552;31;34219;-82
2021/09/17 04:25:38;;;;;;;12.63;7.35;;;;;;;21.98;67.97;99162.72;4489200;31;33447;-83
2021/09/17 04:28:07;;;;;;;11.73;7.25;;;;;;;22.21;67.20;99166.66;4489384;31;34190;-82
2021/09/17 04:30:34;;;;;;;15.38;8.43;;;;;;;21.98;68.16;99151.97;4464297;31;33018;-82
2021/09/17 04:33:04;;;;;;;15.18;8.10;;;;;;;22.03;68.10;99147.00;4490346;31;32956;-83
2021/09/17 04:35:32;;;;;;;14.10;8.10;;;;;;;22.12;67.75;99146.06;4477619;31;33648;-83
2021/09/17 04:37:59;;;;;;;19.35;8.65;;;;;;;22.12;67.79;99156.81;4489338;31;33543;-83
2021/09/17 04:40:27;;;;;;;11.15;7.57;;;;;;;22.20;67.92;99156.06;4491840;31;33785;-82
2021/09/17 04:42:55;;;;;;;17.73;9.85;;;;;;;22.43;66.92;99161.78;4475309;31;33128;-82
2021/09/17 04:45:23;;;;;;;14.07;8.50;;;;;;;22.06;68.18;99165.50;4478806;31;33314;-82
2021/09/17 04:47:51;;;;;;;14.50;8.90;;;;;;;22.07;68.39;99161.78;4490805;31;33624;-81
2021/09/17 04:50:18;;;;;;;16.95;9.60;;;;;;;22.48;66.97;99170.19;4477635;31;34076;-82
2021/09/17 04:52:47;;;;;;;21.50;10.40;;;;;;;22.14;68.33;99175.50;4493934;31;32839;-81
2021/09/17 04:55:17;;;;;;;16.40;11.12;;;;;;;21.87;69.46;99171.03;4480089;31;32675;-82
2021/09/17 04:57:44;;;;;;;21.65;12.60;;;;;;;22.03;69.02;99179.25;4465083;31;32981;-81
2021/09/17 05:00:12;;;;;;;17.80;11.12;;;;;;;21.79;70.22;99179.03;4479648;31;34178;-81
2021/09/17 05:02:40;;;;;;;19.50;13.27;;;;;;;21.72;70.65;99179.66;4490493;31;34204;-82
2021/09/17 05:05:09;;;;;;;21.80;12.07;;;;;;;21.76;70.79;99184.72;4478569;31;32836;-81
2021/09/17 05:07:37;;;;;;;19.25;10.23;;;;;;;21.86;70.37;99190.84;4490066;31;33965;-82
2021/09/17 05:10:19;;;;;;;15.57;10.40;;;;;;;21.88;70.49;99191.53;4470414;31;33289;-82
2021/09/17 05:12:47;;;;;;;16.75;11.32;;;;;;;21.95;70.20;99193.47;4492663;31;34219;-82
2021/09/17 05:15:15;;;;;;;15.73;10.45;;;;;;;22.23;69.26;99193.41;4493466;31;33738;-82
2021/09/17 05:17:44;;;;;;;14.65;9.60;;;;;;;22.27;69.26;99196.62;4491190;31;35479;-82
2021/09/17 05:20:13;;;;;;;19.17;9.75;;;;;;;22.31;69.37;99193.44;4473993;31;32115;-82
2021/09/17 05:22:41;;;;;;;18.45;9.68;;;;;;;22.26;69.70;99195.75;4488769;31;33242;-82
2021/09/17 05:25:09;;;;;;;12.13;9.50;;;;;;;22.35;69.52;99196.66;4489118;31;34513;-82
2021/09/17 05:27:37;;;;;;;11.90;8.80;;;;;;;22.43;69.50;99212.88;4489196;31;34731;-82
2021/09/17 05:30:06;;;;;;;14.63;8.60;;;;;;;22.46;69.66;99207.19;4489718;31;33606;-82
2021/09/17 05:32:34;;;;;;;13.90;7.30;;;;;;;22.69;68.48;99208.34;4474018;32;32945;-82
2021/09/17 05:35:03;;;;;;;9.82;7.30;;;;;;;22.43;69.28;99202.13;4489559;31;33051;-83
2021/09/17 05:37:31;;;;;;;10.85;6.37;;;;;;;22.28;70.08;99211.75;4476722;31;34222;-83
2021/09/17 05:39:59;;;;;;;8.27;5.70;;;;;;;22.40;69.12;99214.03;4477452;31;33666;-82
2021/09/17 05:42:26;;;;;;;6.97;4.60;;;;;;;22.21;69.99;99215.06;4464442;31;32896;-82
2021/09/17 05:44:57;;;;;;;6.30;3.87;;;;;;;22.44;69.16;99210.03;4488514;31;32961;-83
2021/09/17 05:47:25;;;;;;;3.95;3.12;;;;;;;22.26;69.66;99211.06;4493869;31;34135;-83
2021/09/17 05:49:52;;;;;;;5.57;2.60;;;;;;;22.10;70.47;99204.50;4480588;31;33911;-84
2021/09/17 05:52:20;;;;;;;2.40;1.80;;;;;;;22.31;69.59;99208.72;4491479;31;34171;-84
2021/09/17 05:54:48;;;;;;;2.65;2.05;;;;;;;22.30;69.11;99210.59;4486877;31;33914;-84
2021/09/17 05:57:15;;;;;;;2.70;1.70;;;;;;;22.29;69.33;99213.44;4488228;31;33674;-84
2021/09/17 05:59:43;;;;;;;2.87;1.58;;;;;;;22.18;69.69;99211.84;4491608;31;34199;-84
2021/09/17 06:02:11;;;;;;;2.30;1.80;;;;;;;22.12;70.23;99215.97;4492790;31;33431;-84
2021/09/17 06:04:39;;;;;;;3.78;2.00;;;;;;;22.26;69.59;99211.06;4477299;32;33320;-84
2021/09/17 06:07:06;;;;;;;1.15;1.05;;;;;;;22.36;69.21;99211.81;4467030;31;34041;-84
2021/09/17 06:09:36;;;;;;;3.08;1.30;;;;;;;22.34;68.99;99214.66;4482068;31;33944;-84
2021/09/17 06:12:05;;;;;;;2.87;1.62;;;;;;;22.41;68.78;99214.88;4489611;31;33116;-84
2021/09/17 06:14:33;;;;;;;2.67;1.10;;;;;;;22.21;69.99;99215.06;4476000;31;33896;-84
2021/09/17 06:17:00;;;;;;;1.87;0.93;;;;;;;22.65;68.16;99201.59;4474416;31;33413;-84
2021/09/17 06:19:28;;;;;;;2.47;1.35;;;;;;;22.40;69.28;99214.03;4479018;31;33712;-84
2021/09/17 06:21:56;;;;;;;1.23;0.85;;;;;;;22.58;68.57;99213.97;4478712;31;32259;-84
2021/09/17 06:24:23;;;;;;;1.40;1.08;;;;;;;22.56;68.20;99213.31;4488206;31;33880;-84
2021/09/17 06:26:51;;;;;;;1.60;1.17;;;;;;;22.58;68.21;99211.28;4476721;31;33158;-84
2021/09/17 06:29:19;;;;;;;1.92;1.58;;;;;;;22.91;67.42;99214.22;4474621;32;34237;-84
2021/09/17 06:31:46;;;;;;;2.40;1.50;;;;;;;22.52;68.39;99214.63;4488468;31;34319;-84
2021/09/17 06:34:14;;;;;;;1.95;1.73;;;;;;;22.64;68.00;99221.41;4492982;31;34586;-84
2021/09/17 06:36:42;;;;;;;2.62;1.85;;;;;;;22.55;68.61;99227.78;4477730;31;33833;-84
2021/09/17 06:39:09;;;;;;;1.60;1.40;;;;;;;22.51;68.64;99226.41;4464849;31;32616;-84
2021/09/17 06:41:37;;;;;;;4.65;1.73;;;;;;;22.46;68.26;99234.94;4490908;31;33875;-84
2021/09/17 06:44:05;;;;;;;1.95;1.73;;;;;;;22.81;67.67;99226.91;4471571;31;33901;-84
2021/09/17 06:46:32;;;;;;;1.67;1.40;;;;;;;22.96;67.30;99233.44;4489259;31;34014;-84
2021/09/17 06:49:01;;;;;;;2.85;1.65;;;;;;;23.30;66.70;99235.28;4485739;31;35322;-84
2021/09/17 06:51:28;;;;;;;3.05;1.73;;;;;;;23.06;67.04;99234.16;4482569;31;33769;-84
2021/09/17 06:53:56;;;;;;;5.53;2.17;;;;;;;23.14;66.66;99236.91;4489349;31;33939;-84
2021/09/17 06:56:24;;;;;;;2.20;1.65;;;;;;;22.89;67.32;99235.09;4486508;31;34075;-84
2021/09/17 06:58:51;;;;;;;8.38;2.40;;;;;;;22.82;67.37;99234.81;4478447;31;33126;-84
2021/09/17 07:01:21;;;;;;;2.85;2.25;;;;;;;22.77;68.27;99241.69;4471282;31;32418;-84
2021/09/17 07:03:49;;;;;;;2.17;1.87;;;;;;;23.11;66.78;99245.28;4476348;31;32881;-84
2021/09/17 07:06:17;;;;;;;3.35;1.80;;;;;;;23.23;66.19;99243.16;4477362;31;36642;-84
2021/09/17 07:08:45;;;;;;;5.03;2.50;;;;;;;22.86;67.57;99255.03;4489263;31;33580;-84
2021/09/17 07:11:13;;;;;;;2.97;2.28;;;;;;;22.88;67.34;99249.50;4481497;31;33386;-84
2021/09/17 07:13:40;;;;;;;5.15;2.37;;;;;;;22.62;68.16;99260.28;4491818;31;33886;-84
2021/09/17 07:16:08;;;;;;;3.78;2.33;;;;;;;22.75;68.46;99256.16;4490793;31;35463;-83
2021/09/17 07:18:36;;;;;;;5.60;2.87;;;;;;;22.97;67.64;99259.34;4471025;31;32692;-83
2021/09/17 07:21:03;;;;;;;2.00;1.85;;;;;;;22.61;68.87;99263.97;4474319;31;33338;-83
2021/09/17 07:23:31;;;;;;;2.87;1.70;;;;;;;22.41;69.54;99271.38;4477242;31;33012;-83
2021/09/17 07:25:59;;;;;;;4.25;2.05;;;;;;;22.31;69.05;99273.28;4489522;31;33790;-84
2021/09/17 07:28:31;;;;;;;2.10;1.55;;;;;;;22.07;69.82;99276.56;4493337;31;33806;-83
2021/09/17 07:31:00;;;;;;;1.80;1.33;;;;;;;22.40;68.53;99283.97;4478945;31;32115;-83
2021/09/17 07:33:28;;;;;;;2.17;1.73;;;;;;;22.08;69.37;99286.34;4489303;31;33516;-83
2021/09/17 07:35:55;;;;;;;1.42;0.93;;;;;;;22.12;69.67;99296.62;4468701;32;33452;-83
2021/09/17 07:38:23;;;;;;;1.73;0.68;;;;;;;22.09;68.57;99290.72;4488091;31;33747;-83
2021/09/17 07:40:51;;;;;;;1.87;0.90;;;;;;;21.97;67.01;99303.50;4476366;31;33192;-83
2021/09/17 07:43:18;;;;;;;0.50;0.50;;;;;;;21.59;68.48;99310.81;4478341;31;33046;-83
2021/09/17 07:45:47;;;;;;;1.50;0.93;;;;;;;21.42;68.43;99304.41;4493753;31;34019;-84
2021/09/17 07:48:14;;;;;;;2.25;1.17;;;;;;;21.28;69.20;99306.69;4493992;31;33804;-83
2021/09/17 07:50:42;;;;;;;3.50;1.20;;;;;;;21.44;69.56;99313.13;4476830;31;32393;-84
2021/09/17 07:53:11;;;;;;;2.00;1.55;;;;;;;21.28;70.37;99317.44;4492819;31;32580;-84
2021/09/17 07:55:39;;;;;;;3.40;1.60;;;;;;;21.27;70.83;99311.22;4493408;31;33718;-83
2021/09/17 07:58:07;;;;;;;1.95;1.83;;;;;;;21.11;71.59;99311.81;4479824;31;33768;-84
2021/09/17 08:00:35;;;;;;;2.05;1.77;;;;;;;21.07;71.25;99299.69;4481345;31;33983;-84
2021/09/17 08:03:04;;;;;;;2.67;2.10;;;;;;;20.85;72.08;99305.41;4477484;31;33464;-84
2021/09/17 08:05:33;;;;;;;4.68;1.90;;;;;;;21.11;71.28;99313.66;4482935;31;34763;-84
2021/09/17 08:08:01;;;;;;;2.28;1.80;;;;;;;21.14;71.10;99314.22;4489006;31;34089;-84
2021/09/17 08:10:29;;;;;;;1.55;1.17;;;;;;;21.04;71.42;99316.09;4480769;31;32906;-84
2021/09/17 08:12:56;;;;;;;3.95;1.30;;;;;;;20.51;72.32;99324.66;4490072;31;33520;-84
2021/09/17 08:15:24;;;;;;;3.60;1.12;;;;;;;20.87;71.11;99319.50;4491127;31;34113;-84
2021/09/17 08:17:52;;;;;;;1.75;1.50;;;;;;;20.85;71.05;99318.81;4481796;31;33698;-84
2021/09/17 08:20:19;;;;;;;1.08;0.98;;;;;;;20.74;72.25;99313.59;4479711;31;33007;-84
2021/09/17 08:22:47;;;;;;;0.82;0.73;;;;;;;20.89;71.05;99317.56;4477870;31;34401;-84
2021/09/17 08:25:15;;;;;;;3.87;0.80;;;;;;;21.28;70.17;99323.66;4481843;31;34809;-84
2021/09/17 08:27:46;;;;;;;2.62;0.90;;;;;;;20.90;71.27;99311.19;4492695;31;34278;-84
2021/09/17 08:30:17;;;;;;;0.62;0.55;;;;;;;21.11;71.32;99319.88;4480149;31;32743;-84
2021/09/17 08:33:02;;;;;;;0.68;0.50;;;;;;;21.09;72.12;99318.34;4480010;31;34569;-84
2021/09/17 08:35:50;;;;;;;0.85;0.75;;;;;;;20.86;71.09;99317.81;4481339;31;32902;-84
2021/09/17 08:38:38;;;;;;;0.55;0.20;;;;;;;20.88;69.94;99315.84;4463180;32;34412;-84
2021/09/17 08:41:15;;;;;;;0.30;0.22;;;;;;;21.12;69.41;99321.56;4480039;31;34267;-84
2021/09/17 08:43:43;;;;;;;0.20;0.20;;;;;;;20.94;70.51;99323.31;4488840;31;33880;-84
2021/09/17 08:46:15;;;;;;;0.47;0.35;;;;;;;20.86;70.18;99329.41;4478438;31;34412;-84
2021/09/17 08:48:43;;;;;;;0.70;0.40;;;;;;;21.05;69.15;99327.69;4491213;31;34531;-84
2021/09/17 08:51:12;;;;;;;4.40;0.43;;;;;;;21.08;68.48;99333.59;4478719;31;34603;-84
2021/09/17 08:53:41;;;;;;;0.60;0.60;;;;;;;20.75;70.08;99328.69;4479714;31;33561;-85
2021/09/17 08:56:12;;;;;;;1.17;1.02;;;;;;;20.76;70.09;99327.72;4466347;31;33191;-85
2021/09/17 08:58:39;;;;;;;2.33;1.30;;;;;;;21.04;68.62;99332.19;4489017;31;34533;-84
2021/09/17 09:01:07;;;;;;;1.60;1.10;;;;;;;20.74;68.83;99335.06;4473067;31;32549;-84
2021/09/17 09:03:35;;;;;;;1.62;1.20;;;;;;;20.62;69.52;99337.06;4479354;31;33921;-85
2021/09/17 09:06:13;;;;;;;1.87;1.70;;;;;;;20.87;68.63;99325.72;4492420;31;33643;-84
2021/09/17 09:08:57;;;;;;;3.17;1.40;;;;;;;20.88;68.89;99321.19;4491716;31;33522;-84
2021/09/17 09:11:26;;;;;;;1.62;1.50;;;;;;;20.66;69.08;99323.22;4484783;31;32992;-85
2021/09/17 09:14:13;;;;;;;1.50;1.40;;;;;;;20.67;67.73;99314.19;4481891;31;32832;-84
2021/09/17 09:16:44;;;;;;;1.48;1.25;;;;;;;20.48;68.70;99316.03;4493017;31;33638;-84
2021/09/17 09:19:25;;;;;;;1.40;1.30;;;;;;;20.47;67.80;99307.16;4478800;31;32735;-84
2021/09/17 09:22:02;;;;;;;1.67;1.20;;;;;;;20.55;67.53;99309.94;4474391;31;32728;-84
2021/09/17 09:24:44;;;;;;;1.40;1.30;;;;;;;20.62;67.03;99302.19;4494569;31;34861;-84
2021/09/17 09:27:40;;;;;;;2.33;1.15;;;;;;;20.71;67.14;99299.50;4477679;31;33212;-85
2021/09/17 09:30:11;;;;;;;1.60;1.50;;;;;;;20.87;67.39;99300.72;4478528;31;33645;-84
2021/09/17 09:32:39;;;;;;;3.58;1.25;;;;;;;20.68;67.67;99307.81;4478662;31;32566;-84
2021/09/17 09:35:09;;;;;;;1.92;1.12;;;;;;;20.81;67.77;99304.00;4476122;31;32744;-84
2021/09/17 09:37:39;;;;;;;1.27;1.15;;;;;;;20.63;67.98;99310.09;4489407;31;33663;-84
2021/09/17 09:40:11;;;;;;;3.60;1.65;;;;;;;20.88;66.36;99305.09;4492934;31;34683;-84
2021/09/17 09:42:40;;;;;;;;;;;;;;;20.82;66.54;99303.84;4476963;31;33666;-84
2021/09/17 09:45:20;;;;;;;1.15;1.05;;;;;;;20.82;65.95;99305.69;4492529;31;34992;-84
2021/09/17 09:47:54;;;;;;;1.42;1.33;;;;;;;20.76;66.40;99292.84;4486275;31;33709;-84
2021/09/17 09:50:24;;;;;;;2.72;1.17;;;;;;;20.67;66.53;99305.28;4490540;31;33228;-84
2021/09/17 09:53:02;;;;;;;6.57;1.37;;;;;;;20.65;66.87;99308.13;4491416;31;34046;-84
2021/09/17 09:55:31;;;;;;;1.77;0.90;;;;;;;20.52;67.29;99304.03;4482893;31;33283;-84
2021/09/17 09:57:58;;;;;;;2.58;1.20;;;;;;;20.85;64.64;99302.72;4463821;31;34561;-84
2021/09/17 10:00:27;;;;;;;1.58;1.48;;;;;;;20.74;64.31;99310.91;4494113;31;33867;-85
2021/09/17 10:02:56;;;;;;;1.58;1.48;;;;;;;20.80;64.72;99305.00;4480993;31;34052;-84
2021/09/17 10:05:27;;;;;;;1.83;1.65;;;;;;;20.91;64.49;99299.44;4493100;31;33681;-84
2021/09/17 10:07:55;;;;;;;2.87;1.40;;;;;;;20.78;63.80;99289.03;4477739;31;33114;-84
2021/09/17 10:10:22;;;;;;;2.28;1.37;;;;;;;20.58;63.48;99293.56;4475162;32;34916;-84
2021/09/17 10:12:50;;;;;;;1.42;1.33;;;;;;;20.26;64.73;99301.03;4480102;31;33454;-84
2021/09/17 10:15:18;;;;;;;1.75;1.65;;;;;;;20.42;64.62;99293.28;4481215;31;34037;-84
2021/09/17 10:17:51;;;;;;;3.00;1.90;;;;;;;20.51;63.93;99286.22;4488789;31;33346;-84
2021/09/17 10:20:19;;;;;;;3.97;1.65;;;;;;;20.54;63.32;99294.84;4490310;31;34749;-84
2021/09/17 10:22:48;;;;;;;2.90;1.50;;;;;;;20.63;63.34;99296.69;4489869;31;34102;-84
2021/09/17 10:25:20;;;;;;;1.92;1.80;;;;;;;20.79;62.82;99301.44;4490039;31;33823;-83
2021/09/17 10:28:06;;;;;;;1.50;1.40;;;;;;;20.61;62.95;99309.41;4485469;31;33607;-84
2021/09/17 10:30:36;;;;;;;4.68;1.30;;;;;;;20.66;62.46;99299.09;4478579;31;33170;-84
2021/09/17 10:33:04;;;;;;;3.25;2.00;;;;;;;20.69;62.58;99290.72;4493019;31;33052;-84
2021/09/17 10:35:43;;;;;;;5.32;1.83;;;;;;;20.86;62.55;99296.38;4481413;31;32929;-84
2021/09/17 10:38:18;;;;;;;1.77;1.67;;;;;;;20.87;63.58;99303.41;4493662;31;33404;-84
2021/09/17 10:40:52;;;;;;;1.50;1.30;;;;;;;20.82;62.04;99300.31;4478819;31;33110;-84
2021/09/17 10:43:31;;;;;;;1.50;1.40;;;;;;;21.03;62.84;99297.44;4467332;31;33625;-85
2021/09/17 10:46:20;;;;;;;3.92;1.33;;;;;;;20.82;60.43;99294.94;4490001;31;33942;-84
2021/09/17 10:48:57;;;;;;;1.45;1.35;;;;;;;20.79;61.66;99305.97;4488272;31;34344;-84
2021/09/17 10:51:33;;;;;;;1.85;1.30;;;;;;;20.65;60.96;99312.63;4473922;31;34209;-84
2021/09/17 10:54:16;;;;;;;1.37;1.27;;;;;;;20.66;62.83;99307.13;4488434;31;33313;-84
2021/09/17 10:56:47;;;;;;;1.90;1.23;;;;;;;20.97;60.70;99299.72;4474942;31;34838;-84
2021/09/17 10:59:25;;;;;;;1.42;1.10;;;;;;;21.03;60.59;99309.03;4488738;31;34142;-84
2021/09/17 11:01:55;;;;;;;1.42;1.30;;;;;;;20.63;60.69;99320.81;4480759;31;34776;-83
2021/09/17 11:04:26;;;;;;;1.52;1.33;;;;;;;20.84;nan;99314.44;4488760;31;33066;-84
2021/09/17 11:06:55;;;;;;;1.58;1.10;;;;;;;20.90;60.27;99303.97;4481371;31;33805;-84
2021/09/17 11:09:44;;;;;;;1.27;1.17;;;;;;;21.21;59.73;99306.41;4494256;31;33980;-84
2021/09/17 11:12:15;;;;;;;1.05;1.00;;;;;;;21.07;60.92;99299.69;4490120;31;33911;-84
2021/09/17 11:14:43;;;;;;;1.17;1.08;;;;;;;21.37;58.89;99300.47;4490577;31;34166;-84
2021/09/17 11:17:11;;;;;;;1.75;1.25;;;;;;;20.94;60.33;99305.38;4487540;31;33218;-84
2021/09/17 11:19:39;;;;;;;1.27;1.10;;;;;;;21.46;59.07;99311.16;4493421;31;34490;-84
2021/09/17 11:22:07;;;;;;;1.85;1.23;;;;;;;21.43;59.02;99311.47;4483341;31;33860;-84
2021/09/17 11:24:38;;;;;;;1.05;0.95;;;;;;;21.34;59.31;99298.91;4495211;31;33500;-84
2021/09/17 11:27:09;;;;;;;5.40;1.60;;;;;;;21.73;57.83;99298.72;4477466;31;33627;-84
2021/09/17 11:35:27;;;;;;;;;;;;;;;;;;;;;
2021/09/17 11:38:56;;;;;;;2.03;1.20;;;;;;;21.69;57.01;99303.53;4296487;33;33796;-84
2021/09/17 11:42:13;;;;;;;3.80;1.27;;;;;;;21.62;56.23;99297.09;4301856;33;32826;-84
2021/09/17 11:45:13;;;;;;;2.15;1.05;;;;;;;21.44;57.13;99312.31;4274454;33;34802;-84
2021/09/17 11:47:56;;;;;;;2.03;1.05;;;;;;;21.40;57.44;99305.53;4366082;32;34024;-84
2021/09/17 11:50:29;;;;;;;1.25;1.15;;;;;;;21.63;55.70;99309.50;4424084;32;33269;-84